Terminal Aerodrome Forecast
Issued by NWS Sioux Falls, SD

Home | Current Version | Previous Version | Graphics & Text | Print | Product List | Glossary On
Versions: 1 2 3 4 5 6 7 8 9 10 11 12 13 14 15 16 17 18 19 20 21 22
358
FTUS43 KFSD 222323 AAC
TAFHON
TAF AMD
KHON 222323Z 2223/2324 05009KT P6SM OVC015
     FM230600 07009KT 3SM BR OVC008
     FM230900 09010KT 2SM BR OVC003
     FM231500 11012KT P6SM OVC003
     FM231800 11014KT P6SM OVC015
     FM232000 12016G24KT P6SM BKN250
     FM232100 12016G24KT P6SM SCT250=

USA.gov is the U.S. government's official web portal to all federal, state and local government web resources and services.